sensor_id;sensor_type;location;lat;lon;timestamp;pressure;altitude;pressure_sealevel;temperature;humidity
62708;BME280;48769;51.624;5.886;2023-11-19T00:01:45;100728.09;;;12.73;100.00
62708;BME280;48769;51.624;5.886;2023-11-19T00:04:12;100715.69;;;12.74;100.00
62708;BME280;48769;51.624;5.886;2023-11-19T00:06:37;100716.56;;;12.74;100.00
62708;BME280;48769;51.624;5.886;2023-11-19T00:09:02;100700.47;;;12.77;100.00
62708;BME280;48769;51.624;5.886;2023-11-19T00:11:29;100698.75;;;12.76;100.00
62708;BME280;48769;51.624;5.886;2023-11-19T00:13:54;100694.31;;;12.77;100.00
62708;BME280;48769;51.624;5.886;2023-11-19T00:16:19;100703.97;;;12.78;100.00
62708;BME280;48769;51.624;5.886;2023-11-19T00:18:44;100704.53;;;12.83;100.00
62708;BME280;48769;51.624;5.886;2023-11-19T00:21:10;100691.38;;;12.81;100.00
62708;BME280;48769;51.624;5.886;2023-11-19T00:23:36;100694.03;;;12.81;100.00
62708;BME280;48769;51.624;5.886;2023-11-19T00:26:01;100688.72;;;12.81;100.00
62708;BME280;48769;51.624;5.886;2023-11-19T00:28:26;100680.59;;;12.84;100.00
62708;BME280;48769;51.624;5.886;2023-11-19T00:30:52;100673.28;;;12.88;100.00
62708;BME280;48769;51.624;5.886;2023-11-19T00:33:18;100666.19;;;12.89;100.00
62708;BME280;48769;51.624;5.886;2023-11-19T00:35:43;100676.66;;;12.90;100.00
62708;BME280;48769;51.624;5.886;2023-11-19T00:38:08;100666.75;;;12.94;100.00
62708;BME280;48769;51.624;5.886;2023-11-19T00:40:34;100672.13;;;12.92;100.00
62708;BME280;48769;51.624;5.886;2023-11-19T00:42:59;100669.41;;;12.94;100.00
62708;BME280;48769;51.624;5.886;2023-11-19T00:45:24;100674.28;;;13.00;100.00
62708;BME280;48769;51.624;5.886;2023-11-19T00:47:50;100662.19;;;12.96;100.00
62708;BME280;48769;51.624;5.886;2023-11-19T00:50:16;100667.28;;;12.99;100.00
62708;BME280;48769;51.624;5.886;2023-11-19T00:52:41;100672.50;;;13.00;100.00
62708;BME280;48769;51.624;5.886;2023-11-19T00:55:07;100667.94;;;13.02;100.00
62708;BME280;48769;51.624;5.886;2023-11-19T00:57:32;100666.88;;;13.05;100.00
62708;BME280;48769;51.624;5.886;2023-11-19T00:59:58;100660.63;;;13.06;100.00
62708;BME280;48769;51.624;5.886;2023-11-19T01:02:24;100660.44;;;13.09;100.00
62708;BME280;48769;51.624;5.886;2023-11-19T01:04:49;100656.72;;;13.12;100.00
62708;BME280;48769;51.624;5.886;2023-11-19T01:07:15;100662.50;;;13.18;100.00
62708;BME280;48769;51.624;5.886;2023-11-19T01:09:41;100675.03;;;13.16;100.00
62708;BME280;48769;51.624;5.886;2023-11-19T01:12:07;100677.66;;;13.16;100.00
62708;BME280;48769;51.624;5.886;2023-11-19T01:14:32;100673.94;;;13.19;100.00
62708;BME280;48769;51.624;5.886;2023-11-19T01:16:58;100665.91;;;13.20;100.00
62708;BME280;48769;51.624;5.886;2023-11-19T01:19:23;100672.91;;;13.21;100.00
62708;BME280;48769;51.624;5.886;2023-11-19T01:21:50;100675.38;;;13.24;100.00
62708;BME280;48769;51.624;5.886;2023-11-19T01:24:15;100664.69;;;13.26;100.00
62708;BME280;48769;51.624;5.886;2023-11-19T01:26:41;100664.56;;;13.27;100.00
62708;BME280;48769;51.624;5.886;2023-11-19T01:29:11;100655.66;;;13.28;100.00
62708;BME280;48769;51.624;5.886;2023-11-19T01:31:39;100658.50;;;13.25;100.00
62708;BME280;48769;51.624;5.886;2023-11-19T01:34:05;100648.53;;;13.29;100.00
62708;BME280;48769;51.624;5.886;2023-11-19T01:36:30;100658.31;;;13.28;100.00
62708;BME280;48769;51.624;5.886;2023-11-19T01:38:55;100644.13;;;13.29;100.00
62708;BME280;48769;51.624;5.886;2023-11-19T01:41:21;100643.34;;;13.27;100.00
62708;BME280;48769;51.624;5.886;2023-11-19T01:43:46;100630.09;;;13.27;100.00
62708;BME280;48769;51.624;5.886;2023-11-19T01:46:12;100631.22;;;13.23;100.00
62708;BME280;48769;51.624;5.886;2023-11-19T01:48:43;100628.56;;;13.23;100.00
62708;BME280;48769;51.624;5.886;2023-11-19T01:51:09;100637.19;;;13.27;100.00
62708;BME280;48769;51.624;5.886;2023-11-19T01:53:36;100643.34;;;13.27;100.00
62708;BME280;48769;51.624;5.886;2023-11-19T01:56:03;100644.84;;;13.31;100.00
62708;BME280;48769;51.624;5.886;2023-11-19T01:58:30;100632.41;;;13.32;100.00
62708;BME280;48769;51.624;5.886;2023-11-19T02:00:56;100637.84;;;13.30;100.00
62708;BME280;48769;51.624;5.886;2023-11-19T02:03:22;100647.50;;;13.31;100.00
62708;BME280;48769;51.624;5.886;2023-11-19T02:05:50;100631.78;;;13.28;100.00
62708;BME280;48769;51.624;5.886;2023-11-19T02:08:16;100628.56;;;13.23;100.00
62708;BME280;48769;51.624;5.886;2023-11-19T02:10:41;100635.97;;;13.18;100.00
62708;BME280;48769;51.624;5.886;2023-11-19T02:13:08;100630.00;;;13.15;100.00
62708;BME280;48769;51.624;5.886;2023-11-19T02:15:35;100618.75;;;13.11;100.00
62708;BME280;48769;51.624;5.886;2023-11-19T02:18:17;100635.91;;;13.05;100.00
62708;BME280;48769;51.624;5.886;2023-11-19T02:20:44;100628.47;;;12.98;100.00
62708;BME280;48769;51.624;5.886;2023-11-19T02:23:09;100626.22;;;12.92;100.00
62708;BME280;48769;51.624;5.886;2023-11-19T02:25:35;100624.72;;;12.88;100.00
62708;BME280;48769;51.624;5.886;2023-11-19T02:28:02;100620.16;;;12.90;100.00
62708;BME280;48769;51.624;5.886;2023-11-19T02:30:28;100627.25;;;12.89;100.00
62708;BME280;48769;51.624;5.886;2023-11-19T02:33:00;100637.78;;;12.91;100.00
62708;BME280;48769;51.624;5.886;2023-11-19T02:35:30;100629.72;;;12.92;100.00
62708;BME280;48769;51.624;5.886;2023-11-19T02:37:57;100622.53;;;12.94;100.00
62708;BME280;48769;51.624;5.886;2023-11-19T02:40:22;100619.09;;;12.92;100.00
62708;BME280;48769;51.624;5.886;2023-11-19T02:42:49;100617.59;;;12.88;100.00
62708;BME280;48769;51.624;5.886;2023-11-19T02:45:15;100607.00;;;12.88;100.00
62708;BME280;48769;51.624;5.886;2023-11-19T02:47:41;100614.84;;;12.90;100.00
62708;BME280;48769;51.624;5.886;2023-11-19T02:50:12;100625.06;;;12.96;100.00
62708;BME280;48769;51.624;5.886;2023-11-19T02:52:42;100621.56;;;12.95;100.00
62708;BME280;48769;51.624;5.886;2023-11-19T02:55:08;100607.25;;;12.98;100.00
62708;BME280;48769;51.624;5.886;2023-11-19T02:57:35;100626.53;;;13.00;100.00
62708;BME280;48769;51.624;5.886;2023-11-19T03:00:00;100633.56;;;13.01;100.00
62708;BME280;48769;51.624;5.886;2023-11-19T03:02:26;100629.19;;;13.00;100.00
62708;BME280;48769;51.624;5.886;2023-11-19T03:04:59;100620.50;;;12.98;100.00
62708;BME280;48769;51.624;5.886;2023-11-19T03:07:25;100631.84;;;13.00;100.00
62708;BME280;48769;51.624;5.886;2023-11-19T03:09:50;100630.16;;;12.99;100.00
62708;BME280;48769;51.624;5.886;2023-11-19T03:12:15;100634.41;;;13.01;100.00
62708;BME280;48769;51.624;5.886;2023-11-19T03:14:40;100633.38;;;13.04;100.00
62708;BME280;48769;51.624;5.886;2023-11-19T03:17:06;100629.00;;;13.03;100.00
62708;BME280;48769;51.624;5.886;2023-11-19T03:19:31;100625.16;;;12.94;100.00
62708;BME280;48769;51.624;5.886;2023-11-19T03:21:56;100623.00;;;12.86;100.00
62708;BME280;48769;51.624;5.886;2023-11-19T03:24:22;100618.00;;;12.82;100.00
62708;BME280;48769;51.624;5.886;2023-11-19T03:26:48;100615.41;;;12.68;100.00
62708;BME280;48769;51.624;5.886;2023-11-19T03:29:15;100616.81;;;12.59;100.00
62708;BME280;48769;51.624;5.886;2023-11-19T03:31:43;100628.66;;;12.53;100.00
62708;BME280;48769;51.624;5.886;2023-11-19T03:34:10;100630.94;;;12.45;100.00
62708;BME280;48769;51.624;5.886;2023-11-19T03:36:35;100627.72;;;12.40;100.00
62708;BME280;48769;51.624;5.886;2023-11-19T03:39:01;100620.28;;;12.32;100.00
62708;BME280;48769;51.624;5.886;2023-11-19T03:41:26;100621.38;;;12.28;100.00
62708;BME280;48769;51.624;5.886;2023-11-19T03:43:51;100617.59;;;12.18;100.00
62708;BME280;48769;51.624;5.886;2023-11-19T03:46:20;100620.56;;;12.13;100.00
62708;BME280;48769;51.624;5.886;2023-11-19T03:48:47;100618.16;;;12.09;100.00
62708;BME280;48769;51.624;5.886;2023-11-19T03:51:13;100616.41;;;12.09;100.00
62708;BME280;48769;51.624;5.886;2023-11-19T03:53:45;100607.78;;;12.06;100.00
62708;BME280;48769;51.624;5.886;2023-11-19T03:56:11;100620.25;;;12.04;100.00
62708;BME280;48769;51.624;5.886;2023-11-19T03:58:37;100608.91;;;12.02;100.00
62708;BME280;48769;51.624;5.886;2023-11-19T04:01:03;100607.41;;;11.98;100.00
62708;BME280;48769;51.624;5.886;2023-11-19T04:03:29;100620.81;;;11.95;100.00
62708;BME280;48769;51.624;5.886;2023-11-19T04:05:54;100610.53;;;11.90;100.00
62708;BME280;48769;51.624;5.886;2023-11-19T04:08:19;100621.09;;;11.90;100.00
62708;BME280;48769;51.624;5.886;2023-11-19T04:10:45;100618.66;;;11.87;100.00
62708;BME280;48769;51.624;5.886;2023-11-19T04:13:10;100614.19;;;11.87;100.00
62708;BME280;48769;51.624;5.886;2023-11-19T04:15:35;100608.06;;;11.87;100.00
62708;BME280;48769;51.624;5.886;2023-11-19T04:18:01;100618.72;;;11.85;100.00
62708;BME280;48769;51.624;5.886;2023-11-19T04:20:26;100618.72;;;11.85;100.00
62708;BME280;48769;51.624;5.886;2023-11-19T04:22:51;100629.63;;;11.79;100.00
62708;BME280;48769;51.624;5.886;2023-11-19T04:25:17;100629.94;;;11.75;100.00
62708;BME280;48769;51.624;5.886;2023-11-19T04:27:44;100628.41;;;11.70;100.00
62708;BME280;48769;51.624;5.886;2023-11-19T04:30:10;100629.44;;;11.68;100.00
62708;BME280;48769;51.624;5.886;2023-11-19T04:32:36;100643.25;;;11.73;100.00
62708;BME280;48769;51.624;5.886;2023-11-19T04:35:01;100643.44;;;11.70;100.00
62708;BME280;48769;51.624;5.886;2023-11-19T04:37:26;100631.13;;;11.69;100.00
62708;BME280;48769;51.624;5.886;2023-11-19T04:39:52;100652.50;;;11.66;100.00
62708;BME280;48769;51.624;5.886;2023-11-19T04:42:17;100649.94;;;11.64;100.00
62708;BME280;48769;51.624;5.886;2023-11-19T04:44:43;100646.28;;;11.67;100.00
62708;BME280;48769;51.624;5.886;2023-11-19T04:47:08;100652.13;;;11.72;100.00
62708;BME280;48769;51.624;5.886;2023-11-19T04:49:42;100655.31;;;11.63;100.00
62708;BME280;48769;51.624;5.886;2023-11-19T04:52:10;100642.69;;;11.68;100.00
62708;BME280;48769;51.624;5.886;2023-11-19T04:54:43;100649.22;;;11.77;100.00
62708;BME280;48769;51.624;5.886;2023-11-19T04:57:09;100653.09;;;11.71;100.00
62708;BME280;48769;51.624;5.886;2023-11-19T04:59:36;100647.78;;;11.71;100.00
62708;BME280;48769;51.624;5.886;2023-11-19T05:02:01;100643.44;;;11.70;100.00
62708;BME280;48769;51.624;5.886;2023-11-19T05:04:27;100639.25;;;11.66;100.00
62708;BME280;48769;51.624;5.886;2023-11-19T05:06:52;100652.50;;;11.66;100.00
62708;BME280;48769;51.624;5.886;2023-11-19T05:09:18;100648.31;;;11.62;100.00
62708;BME280;48769;51.624;5.886;2023-11-19T05:11:43;100654.75;;;11.58;100.00
62708;BME280;48769;51.624;5.886;2023-11-19T05:14:09;100654.34;;;11.50;100.00
62708;BME280;48769;51.624;5.886;2023-11-19T05:16:34;100655.28;;;11.49;100.00
62708;BME280;48769;51.624;5.886;2023-11-19T05:19:00;100655.09;;;11.52;100.00
62708;BME280;48769;51.624;5.886;2023-11-19T05:21:25;100655.09;;;11.52;100.00
62708;BME280;48769;51.624;5.886;2023-11-19T05:23:51;100652.28;;;11.55;100.00
62708;BME280;48769;51.624;5.886;2023-11-19T05:26:20;100647.94;;;11.54;100.00
62708;BME280;48769;51.624;5.886;2023-11-19T05:28:46;100651.16;;;11.59;100.00
62708;BME280;48769;51.624;5.886;2023-11-19T05:31:12;100653.22;;;11.54;100.00
62708;BME280;48769;51.624;5.886;2023-11-19T05:33:37;100651.00;;;11.46;100.00
62708;BME280;48769;51.624;5.886;2023-11-19T05:36:03;100654.34;;;11.50;100.00
62708;BME280;48769;51.624;5.886;2023-11-19T05:38:33;100654.44;;;11.48;100.00
62708;BME280;48769;51.624;5.886;2023-11-19T05:40:59;100648.13;;;11.51;100.00
62708;BME280;48769;51.624;5.886;2023-11-19T05:43:24;100644.59;;;11.50;100.00
62708;BME280;48769;51.624;5.886;2023-11-19T05:45:49;100653.59;;;11.48;100.00
62708;BME280;48769;51.624;5.886;2023-11-19T05:48:14;100646.75;;;11.43;100.00
62708;BME280;48769;51.624;5.886;2023-11-19T05:50:40;100654.78;;;11.42;100.00
62708;BME280;48769;51.624;5.886;2023-11-19T05:53:05;100659.97;;;11.43;100.00
62708;BME280;48769;51.624;5.886;2023-11-19T05:55:34;100664.34;;;11.44;100.00
62708;BME280;48769;51.624;5.886;2023-11-19T05:58:01;100666.03;;;11.45;100.00
62708;BME280;48769;51.624;5.886;2023-11-19T06:00:26;100660.56;;;11.49;100.00
62708;BME280;48769;51.624;5.886;2023-11-19T06:02:51;100662.94;;;11.53;100.00
62708;BME280;48769;51.624;5.886;2023-11-19T06:05:17;100663.13;;;11.50;100.00
62708;BME280;48769;51.624;5.886;2023-11-19T06:07:43;100665.88;;;11.49;100.00
62708;BME280;48769;51.624;5.886;2023-11-19T06:10:09;100658.00;;;11.47;100.00
62708;BME280;48769;51.624;5.886;2023-11-19T06:12:36;100671.81;;;11.52;100.00
62708;BME280;48769;51.624;5.886;2023-11-19T06:15:05;100669.34;;;11.49;100.00
62708;BME280;48769;51.624;5.886;2023-11-19T06:17:30;100665.19;;;11.45;100.00
62708;BME280;48769;51.624;5.886;2023-11-19T06:19:55;100667.16;;;11.41;100.00
62708;BME280;48769;51.624;5.886;2023-11-19T06:22:21;100668.97;;;11.41;100.00
62708;BME280;48769;51.624;5.886;2023-11-19T06:24:46;100671.84;;;11.36;100.00
62708;BME280;48769;51.624;5.886;2023-11-19T06:27:11;100660.44;;;11.36;100.00
62708;BME280;48769;51.624;5.886;2023-11-19T06:29:36;100661.44;;;11.33;100.00
62708;BME280;48769;51.624;5.886;2023-11-19T06:32:02;100657.19;;;11.31;100.00
62708;BME280;48769;51.624;5.886;2023-11-19T06:34:27;100666.25;;;11.27;100.00
62708;BME280;48769;51.624;5.886;2023-11-19T06:36:53;100661.13;;;11.23;100.00
62708;BME280;48769;51.624;5.886;2023-11-19T06:39:18;100669.06;;;11.23;100.00
62708;BME280;48769;51.624;5.886;2023-11-19T06:41:45;100670.00;;;11.22;100.00
62708;BME280;48769;51.624;5.886;2023-11-19T06:44:11;100663.88;;;11.22;100.00
62708;BME280;48769;51.624;5.886;2023-11-19T06:46:36;100669.16;;;11.22;100.00
62708;BME280;48769;51.624;5.886;2023-11-19T06:49:02;100658.41;;;11.25;100.00
62708;BME280;48769;51.624;5.886;2023-11-19T06:51:27;100654.81;;;11.26;100.00
62708;BME280;48769;51.624;5.886;2023-11-19T06:53:53;100664.03;;;11.19;100.00
62708;BME280;48769;51.624;5.886;2023-11-19T06:56:23;100668.56;;;11.17;100.00
62708;BME280;48769;51.624;5.886;2023-11-19T06:58:49;100668.50;;;11.18;100.00
62708;BME280;48769;51.624;5.886;2023-11-19T07:01:15;100670.47;;;11.15;100.00
62708;BME280;48769;51.624;5.886;2023-11-19T07:03:41;100680.88;;;11.18;100.00
62708;BME280;48769;51.624;5.886;2023-11-19T07:06:06;100694.94;;;11.18;100.00
62708;BME280;48769;51.624;5.886;2023-11-19T07:08:32;100699.53;;;11.15;100.00
62708;BME280;48769;51.624;5.886;2023-11-19T07:10:57;100702.94;;;11.17;100.00
62708;BME280;48769;51.624;5.886;2023-11-19T07:13:22;100706.34;;;11.19;100.00
62708;BME280;48769;51.624;5.886;2023-11-19T07:15:48;100719.41;;;11.22;100.00
62708;BME280;48769;51.624;5.886;2023-11-19T07:18:13;100714.28;;;11.19;100.00
62708;BME280;48769;51.624;5.886;2023-11-19T07:20:39;100707.19;;;11.19;100.00
62708;BME280;48769;51.624;5.886;2023-11-19T07:23:05;100721.19;;;11.21;100.00
62708;BME280;48769;51.624;5.886;2023-11-19T07:25:31;100708.66;;;11.25;100.00
62708;BME280;48769;51.624;5.886;2023-11-19T07:27:56;100722.63;;;11.27;100.00
62708;BME280;48769;51.624;5.886;2023-11-19T07:30:22;100721.53;;;11.31;100.00
62708;BME280;48769;51.624;5.886;2023-11-19T07:32:47;100719.47;;;11.36;100.00
62708;BME280;48769;51.624;5.886;2023-11-19T07:35:13;100727.16;;;11.41;100.00
62708;BME280;48769;51.624;5.886;2023-11-19T07:37:40;100731.41;;;11.43;100.00
62708;BME280;48769;51.624;5.886;2023-11-19T07:40:06;100742.66;;;11.47;100.00
62708;BME280;48769;51.624;5.886;2023-11-19T07:42:31;100739.94;;;11.49;100.00
62708;BME280;48769;51.624;5.886;2023-11-19T07:44:57;100737.88;;;11.54;100.00
62708;BME280;48769;51.624;5.886;2023-11-19T07:47:22;100738.56;;;11.57;100.00
62708;BME280;48769;51.624;5.886;2023-11-19T07:49:48;100748.28;;;11.57;100.00
62708;BME280;48769;51.624;5.886;2023-11-19T07:52:14;100749.81;;;11.61;100.00
62708;BME280;48769;51.624;5.886;2023-11-19T07:54:39;100750.00;;;11.58;100.00
62708;BME280;48769;51.624;5.886;2023-11-19T07:57:04;100739.13;;;11.62;100.00
62708;BME280;48769;51.624;5.886;2023-11-19T07:59:30;100740.59;;;11.68;100.00
62708;BME280;48769;51.624;5.886;2023-11-19T08:01:55;100742.03;;;11.74;100.00
62708;BME280;48769;51.624;5.886;2023-11-19T08:04:20;100740.97;;;11.76;100.00
62708;BME280;48769;51.624;5.886;2023-11-19T08:06:45;100728.44;;;11.80;100.00
62708;BME280;48769;51.624;5.886;2023-11-19T08:09:11;100737.66;;;11.88;100.00
62708;BME280;48769;51.624;5.886;2023-11-19T08:11:40;100735.78;;;11.90;100.00
62708;BME280;48769;51.624;5.886;2023-11-19T08:14:05;100741.06;;;11.90;100.00
62708;BME280;48769;51.624;5.886;2023-11-19T08:16:30;100737.13;;;11.98;100.00
62708;BME280;48769;51.624;5.886;2023-11-19T08:18:55;100740.34;;;12.03;100.00
62708;BME280;48769;51.624;5.886;2023-11-19T08:21:23;100737.25;;;12.10;100.00
62708;BME280;48769;51.624;5.886;2023-11-19T08:23:48;100756.38;;;12.15;100.00
62708;BME280;48769;51.624;5.886;2023-11-19T08:26:14;100751.38;;;12.25;100.00
62708;BME280;48769;51.624;5.886;2023-11-19T08:28:40;100746.56;;;12.32;100.00
62708;BME280;48769;51.624;5.886;2023-11-19T08:31:05;100747.88;;;12.39;100.00
62708;BME280;48769;51.624;5.886;2023-11-19T08:33:31;100747.59;;;12.86;100.00
62708;BME280;48769;51.624;5.886;2023-11-19T08:35:57;100744.06;;;13.56;100.00
62708;BME280;48769;51.624;5.886;2023-11-19T08:38:23;100757.03;;;14.00;100.00
62708;BME280;48769;51.624;5.886;2023-11-19T08:40:49;100746.66;;;13.97;100.00
62708;BME280;48769;51.624;5.886;2023-11-19T08:43:14;100741.78;;;14.30;100.00
62708;BME280;48769;51.624;5.886;2023-11-19T08:45:39;100742.41;;;14.46;100.00
62708;BME280;48769;51.624;5.886;2023-11-19T08:48:05;100751.56;;;14.29;100.00
62708;BME280;48769;51.624;5.886;2023-11-19T08:50:30;100750.19;;;13.84;100.00
62708;BME280;48769;51.624;5.886;2023-11-19T08:52:56;100757.28;;;13.70;100.00
62708;BME280;48769;51.624;5.886;2023-11-19T08:55:21;100763.00;;;13.64;100.00
62708;BME280;48769;51.624;5.886;2023-11-19T08:57:46;100766.09;;;13.71;100.00
62708;BME280;48769;51.624;5.886;2023-11-19T09:00:12;100758.13;;;13.71;100.00
62708;BME280;48769;51.624;5.886;2023-11-19T09:02:39;100763.75;;;13.66;100.00
62708;BME280;48769;51.624;5.886;2023-11-19T09:05:05;100756.38;;;13.57;100.00
62708;BME280;48769;51.624;5.886;2023-11-19T09:07:32;100761.34;;;13.49;100.00
62708;BME280;48769;51.624;5.886;2023-11-19T09:09:58;100768.81;;;13.29;100.00
62708;BME280;48769;51.624;5.886;2023-11-19T09:12:23;100760.81;;;13.15;100.00
62708;BME280;48769;51.624;5.886;2023-11-19T09:14:48;100749.94;;;13.20;100.00
62708;BME280;48769;51.624;5.886;2023-11-19T09:17:14;100752.97;;;13.28;100.00
62708;BME280;48769;51.624;5.886;2023-11-19T09:19:40;100754.47;;;13.32;100.00
62708;BME280;48769;51.624;5.886;2023-11-19T09:22:05;100757.03;;;13.33;100.00
62708;BME280;48769;51.624;5.886;2023-11-19T09:24:31;100753.41;;;13.35;100.00
62708;BME280;48769;51.624;5.886;2023-11-19T09:26:56;100760.66;;;13.32;100.00
62708;BME280;48769;51.624;5.886;2023-11-19T09:29:21;100756.59;;;13.27;100.00
62708;BME280;48769;51.624;5.886;2023-11-19T09:31:47;100755.91;;;13.23;100.00
62708;BME280;48769;51.624;5.886;2023-11-19T09:34:12;100751.28;;;13.27;100.00
62708;BME280;48769;51.624;5.886;2023-11-19T09:36:37;100756.94;;;13.21;100.00
62708;BME280;48769;51.624;5.886;2023-11-19T09:39:03;100763.47;;;13.15;100.00
62708;BME280;48769;51.624;5.886;2023-11-19T09:41:30;100750.53;;;13.10;100.00
62708;BME280;48769;51.624;5.886;2023-11-19T09:43:56;100758.75;;;13.06;100.00
62708;BME280;48769;51.624;5.886;2023-11-19T09:46:22;100755.06;;;13.08;100.00
62708;BME280;48769;51.624;5.886;2023-11-19T09:48:54;100739.81;;;13.26;100.00
62708;BME280;48769;51.624;5.886;2023-11-19T09:51:21;100755.53;;;13.29;100.00
62708;BME280;48769;51.624;5.886;2023-11-19T09:53:47;100751.53;;;13.37;100.00
62708;BME280;48769;51.624;5.886;2023-11-19T09:56:13;100752.28;;;13.66;100.00
62708;BME280;48769;51.624;5.886;2023-11-19T09:58:39;100759.78;;;13.86;100.00
62708;BME280;48769;51.624;5.886;2023-11-19T10:01:05;100754.03;;;13.79;100.00
62708;BME280;48769;51.624;5.886;2023-11-19T10:03:33;100767.47;;;14.03;100.00
62708;BME280;48769;51.624;5.886;2023-11-19T10:06:01;100759.50;;;14.16;100.00
62708;BME280;48769;51.624;5.886;2023-11-19T10:08:27;100749.88;;;14.28;100.00
62708;BME280;48769;51.624;5.886;2023-11-19T10:10:52;100743.91;;;14.12;100.00
62708;BME280;48769;51.624;5.886;2023-11-19T10:13:18;100741.78;;;14.04;100.00
62708;BME280;48769;51.624;5.886;2023-11-19T10:15:43;100735.50;;;14.05;100.00
62708;BME280;48769;51.624;5.886;2023-11-19T10:18:09;100740.06;;;14.03;100.00
62708;BME280;48769;51.624;5.886;2023-11-19T10:20:40;100734.94;;;14.00;100.00
62708;BME280;48769;51.624;5.886;2023-11-19T10:23:06;100734.00;;;14.01;100.00
62708;BME280;48769;51.624;5.886;2023-11-19T10:25:32;100733.06;;;14.15;100.00
62708;BME280;48769;51.624;5.886;2023-11-19T10:27:58;100729.88;;;14.35;100.00
62708;BME280;48769;51.624;5.886;2023-11-19T10:30:25;100728.53;;;14.55;100.00
62708;BME280;48769;51.624;5.886;2023-11-19T10:33:11;100730.72;;;14.48;100.00
62708;BME280;48769;51.624;5.886;2023-11-19T10:35:56;100744.56;;;14.41;100.00
62708;BME280;48769;51.624;5.886;2023-11-19T10:38:22;100743.72;;;14.40;100.00
62708;BME280;48769;51.624;5.886;2023-11-19T10:40:49;100725.72;;;14.18;100.00
62708;BME280;48769;51.624;5.886;2023-11-19T10:43:14;100747.09;;;14.30;100.00
62708;BME280;48769;51.624;5.886;2023-11-19T10:45:40;100734.56;;;14.44;100.00
62708;BME280;48769;51.624;5.886;2023-11-19T10:48:06;100736.06;;;14.61;100.00
62708;BME280;48769;51.624;5.886;2023-11-19T10:50:37;100733.63;;;14.58;100.00
62708;BME280;48769;51.624;5.886;2023-11-19T10:53:03;100714.34;;;14.42;100.00
62708;BME280;48769;51.624;5.886;2023-11-19T10:55:31;100724.78;;;14.32;100.00
62708;BME280;48769;51.624;5.886;2023-11-19T10:58:05;100729.25;;;14.32;100.00
62708;BME280;48769;51.624;5.886;2023-11-19T11:03:08;100710.09;;;14.39;100.00
62708;BME280;48769;51.624;5.886;2023-11-19T11:05:35;100718.63;;;14.44;100.00
62708;BME280;48769;51.624;5.886;2023-11-19T11:08:04;100704.59;;;14.55;100.00
62708;BME280;48769;51.624;5.886;2023-11-19T11:10:32;100714.38;;;14.67;100.00
62708;BME280;48769;51.624;5.886;2023-11-19T11:13:02;100712.75;;;14.78;100.00
62708;BME280;48769;51.624;5.886;2023-11-19T11:15:30;100714.59;;;14.64;100.00
62708;BME280;48769;51.624;5.886;2023-11-19T11:17:59;100710.88;;;14.54;100.00
62708;BME280;48769;51.624;5.886;2023-11-19T11:20:30;100706.53;;;14.53;100.00
62708;BME280;48769;51.624;5.886;2023-11-19T11:25:56;100714.56;;;14.90;100.00
62708;BME280;48769;51.624;5.886;2023-11-19T11:28:38;100711.84;;;14.66;100.00
62708;BME280;48769;51.624;5.886;2023-11-19T11:34:18;100701.31;;;14.52;100.00
62708;BME280;48769;51.624;5.886;2023-11-19T11:37:05;100697.13;;;14.47;100.00
62708;BME280;48769;51.624;5.886;2023-11-19T11:39:32;100691.63;;;14.38;100.00
62708;BME280;48769;51.624;5.886;2023-11-19T11:45:02;100686.50;;;14.09;100.00
62708;BME280;48769;51.624;5.886;2023-11-19T11:50:11;100684.03;;;13.93;100.00
62708;BME280;48769;51.624;5.886;2023-11-19T11:55:51;100691.38;;;13.90;100.00
62708;BME280;48769;51.624;5.886;2023-11-19T11:58:30;100678.97;;;14.03;100.00
62708;BME280;48769;51.624;5.886;2023-11-19T12:00:58;100699.47;;;14.01;100.00
62708;BME280;48769;51.624;5.886;2023-11-19T12:03:27;100694.16;;;14.26;100.00
62708;BME280;48769;51.624;5.886;2023-11-19T12:05:52;100703.44;;;14.34;100.00
62708;BME280;48769;51.624;5.886;2023-11-19T12:08:19;100694.41;;;14.23;100.00
62708;BME280;48769;51.624;5.886;2023-11-19T12:10:53;100698.19;;;14.07;100.00
62708;BME280;48769;51.624;5.886;2023-11-19T12:13:20;100694.81;;;14.17;100.00
62708;BME280;48769;51.624;5.886;2023-11-19T12:18:31;100691.84;;;14.35;100.00
62708;BME280;48769;51.624;5.886;2023-11-19T12:20:57;100677.38;;;14.13;100.00
62708;BME280;48769;51.624;5.886;2023-11-19T12:23:26;100684.63;;;14.11;100.00
62708;BME280;48769;51.624;5.886;2023-11-19T12:25:51;100679.63;;;14.94;100.00
62708;BME280;48769;51.624;5.886;2023-11-19T12:28:17;100672.88;;;14.78;100.00
62708;BME280;48769;51.624;5.886;2023-11-19T12:30:44;100665.69;;;14.54;100.00
62708;BME280;48769;51.624;5.886;2023-11-19T12:33:11;100676.84;;;14.34;100.00
62708;BME280;48769;51.624;5.886;2023-11-19T12:35:43;100684.41;;;14.14;100.00
62708;BME280;48769;51.624;5.886;2023-11-19T12:38:25;100679.28;;;13.98;100.00
62708;BME280;48769;51.624;5.886;2023-11-19T12:41:07;100676.31;;;14.03;100.00
62708;BME280;48769;51.624;5.886;2023-11-19T12:43:33;100679.72;;;14.69;100.00
62708;BME280;48769;51.624;5.886;2023-11-19T12:46:03;100683.88;;;14.60;100.00
62708;BME280;48769;51.624;5.886;2023-11-19T12:48:29;100684.19;;;14.43;100.00
62708;BME280;48769;51.624;5.886;2023-11-19T12:50:55;100675.63;;;15.13;100.00
62708;BME280;48769;51.624;5.886;2023-11-19T12:53:23;100666.16;;;15.92;100.00
62708;BME280;48769;51.624;5.886;2023-11-19T12:55:49;100665.38;;;15.68;100.00
62708;BME280;48769;51.624;5.886;2023-11-19T12:58:31;100668.13;;;15.31;100.00